createdAt,value
2023-01-05T00:01:50.842Z,4.10
2023-01-05T00:04:18.039Z,3.77
2023-01-05T00:06:45.481Z,3.33
2023-01-05T00:09:16.317Z,4.50
2023-01-05T00:12:02.189Z,5.07
2023-01-05T00:14:51.002Z,3.50
2023-01-05T00:17:41.158Z,4.10
2023-01-05T00:20:34.750Z,3.50
2023-01-05T00:23:01.802Z,4.33
2023-01-05T00:25:33.797Z,3.67
2023-01-05T00:28:00.900Z,3.43
2023-01-05T00:30:41.812Z,3.70
2023-01-05T00:33:15.586Z,3.77
2023-01-05T00:35:42.894Z,4.30
2023-01-05T00:38:10.911Z,3.83
2023-01-05T00:40:39.128Z,3.60
2023-01-05T00:43:06.303Z,3.63
2023-01-05T00:45:33.914Z,3.77
2023-01-05T00:48:01.113Z,4.50
2023-01-05T00:50:30.714Z,4.50
2023-01-05T00:52:58.152Z,3.70
2023-01-05T00:55:25.109Z,3.93
2023-01-05T00:57:52.094Z,4.43
2023-01-05T01:00:19.924Z,4.87
2023-01-05T01:02:47.847Z,3.90
2023-01-05T01:05:15.116Z,4.30
2023-01-05T01:07:42.226Z,4.23
2023-01-05T01:10:10.922Z,4.70
2023-01-05T01:12:37.831Z,4.40
2023-01-05T01:15:05.819Z,4.60
2023-01-05T01:17:33.340Z,5.27
2023-01-05T01:20:00.571Z,3.63
2023-01-05T01:22:27.538Z,3.60
2023-01-05T01:24:54.561Z,3.97
2023-01-05T01:27:21.513Z,3.70
2023-01-05T01:29:48.586Z,4.67
2023-01-05T01:32:16.149Z,3.50
2023-01-05T01:34:46.191Z,3.77
2023-01-05T01:37:13.827Z,3.10
2023-01-05T01:39:46.639Z,2.93
2023-01-05T01:42:16.465Z,3.00
2023-01-05T01:45:13.644Z,4.23
2023-01-05T01:47:46.688Z,4.07
2023-01-05T01:50:27.803Z,3.17
2023-01-05T01:53:05.764Z,3.60
2023-01-05T01:55:33.515Z,3.83
2023-01-05T01:58:03.650Z,3.43
2023-01-05T02:00:30.759Z,4.80
2023-01-05T02:02:58.317Z,3.50
2023-01-05T02:05:30.036Z,2.80
2023-01-05T02:07:57.070Z,4.30
2023-01-05T02:10:56.122Z,3.50
2023-01-05T02:14:02.222Z,3.80
2023-01-05T02:17:06.910Z,4.27
2023-01-05T02:19:55.725Z,3.60
2023-01-05T02:23:08.611Z,3.70
2023-01-05T02:26:32.401Z,2.87
2023-01-05T02:29:38.516Z,3.90
2023-01-05T02:32:29.297Z,3.57
2023-01-05T02:35:39.323Z,3.63
2023-01-05T02:38:52.576Z,3.97
2023-01-05T02:41:36.359Z,4.00
2023-01-05T02:44:08.172Z,3.67
2023-01-05T02:46:35.252Z,5.90
2023-01-05T02:49:05.187Z,3.83
2023-01-05T02:51:40.227Z,4.30
2023-01-05T02:54:20.683Z,5.00
2023-01-05T02:56:56.417Z,4.77
2023-01-05T02:59:33.665Z,3.90
2023-01-05T03:02:18.551Z,3.70
2023-01-05T03:05:04.248Z,5.00
2023-01-05T03:07:36.785Z,4.73
2023-01-05T03:10:25.423Z,4.50
2023-01-05T03:13:16.106Z,4.57
2023-01-05T03:15:46.791Z,4.10
2023-01-05T03:18:19.887Z,4.37
2023-01-05T03:20:52.468Z,4.10
2023-01-05T03:23:40.303Z,3.83
2023-01-05T03:26:29.231Z,3.60
2023-01-05T03:29:18.943Z,4.07
2023-01-05T03:32:21.905Z,3.10
2023-01-05T03:35:19.860Z,3.47
2023-01-05T03:37:58.940Z,4.07
2023-01-05T03:40:33.833Z,2.70
2023-01-05T03:43:01.799Z,3.53
2023-01-05T03:45:44.971Z,4.70
2023-01-05T03:48:20.997Z,4.43
2023-01-05T03:50:48.297Z,3.97
2023-01-05T03:53:17.099Z,4.10
2023-01-05T03:55:45.753Z,5.00
2023-01-05T03:58:13.583Z,4.90
2023-01-05T04:00:44.513Z,5.10
2023-01-05T04:03:13.864Z,4.00
2023-01-05T04:05:40.913Z,3.00
2023-01-05T04:08:08.343Z,4.80
2023-01-05T04:10:36.317Z,4.40
2023-01-05T04:13:03.310Z,5.30
2023-01-05T04:15:30.451Z,4.50
2023-01-05T04:17:58.367Z,6.30
2023-01-05T04:20:25.629Z,4.53
2023-01-05T04:22:53.249Z,5.80
2023-01-05T04:25:22.441Z,4.60
2023-01-05T04:27:49.520Z,6.80
2023-01-05T04:30:18.057Z,3.53
2023-01-05T04:32:44.980Z,5.23
2023-01-05T04:35:15.381Z,6.90
2023-01-05T04:37:43.349Z,4.43
2023-01-05T04:40:11.425Z,4.77
2023-01-05T04:42:50.310Z,5.87
2023-01-05T04:45:18.082Z,4.83
2023-01-05T04:47:45.841Z,4.93
2023-01-05T04:50:17.009Z,4.43
2023-01-05T04:52:44.743Z,4.33
2023-01-05T04:55:12.461Z,4.73
2023-01-05T04:57:40.213Z,4.90
2023-01-05T05:00:11.345Z,5.97
2023-01-05T05:02:38.579Z,4.70
2023-01-05T05:05:09.259Z,4.40
2023-01-05T05:07:39.030Z,5.33
2023-01-05T05:10:09.031Z,5.10
2023-01-05T05:12:37.444Z,4.80
2023-01-05T05:15:06.183Z,4.37
2023-01-05T05:17:33.175Z,4.82
2023-01-05T05:20:00.292Z,4.60
2023-01-05T05:22:28.327Z,5.13
2023-01-05T05:24:55.756Z,5.10
2023-01-05T05:27:23.000Z,5.10
2023-01-05T05:29:50.010Z,4.97
2023-01-05T05:32:16.984Z,5.00
2023-01-05T05:34:43.953Z,4.80
2023-01-05T05:37:10.891Z,5.27
2023-01-05T05:39:37.804Z,5.27
2023-01-05T05:42:05.045Z,4.33
2023-01-05T05:44:32.064Z,5.27
2023-01-05T05:46:59.070Z,4.10
2023-01-05T05:49:26.048Z,5.60
2023-01-05T05:51:53.008Z,5.23
2023-01-05T05:54:19.934Z,4.63
2023-01-05T05:56:46.962Z,4.20
2023-01-05T05:59:13.910Z,5.23
2023-01-05T06:01:40.895Z,5.10
2023-01-05T06:04:07.897Z,4.40
2023-01-05T06:06:34.849Z,4.17
2023-01-05T06:09:01.788Z,4.33
2023-01-05T06:11:28.792Z,3.40
2023-01-05T06:13:55.824Z,4.17
2023-01-05T06:16:22.932Z,4.30
2023-01-05T06:18:49.901Z,4.03
2023-01-05T06:21:17.015Z,4.60
2023-01-05T06:23:43.936Z,4.33
2023-01-05T06:26:10.889Z,5.73
2023-01-05T06:28:37.829Z,4.80
2023-01-05T06:31:05.135Z,3.40
2023-01-05T06:33:32.308Z,4.60
2023-01-05T06:35:59.631Z,5.50
2023-01-05T06:38:27.885Z,6.00
2023-01-05T06:40:55.281Z,5.00
2023-01-05T06:43:22.268Z,6.60
2023-01-05T06:45:49.314Z,4.20
2023-01-05T06:48:16.471Z,4.90
2023-01-05T06:50:43.439Z,5.30
2023-01-05T06:53:10.373Z,6.00
2023-01-05T06:55:37.588Z,4.47
2023-01-05T06:58:04.594Z,4.70
2023-01-05T07:00:31.914Z,3.77
2023-01-05T07:02:58.925Z,5.70
2023-01-05T07:05:25.937Z,3.87
2023-01-05T07:07:52.889Z,3.50
2023-01-05T07:10:19.937Z,5.57
2023-01-05T07:12:46.887Z,5.40
2023-01-05T07:15:13.859Z,5.13
2023-01-05T07:17:40.819Z,5.60
2023-01-05T07:20:08.673Z,4.70
2023-01-05T07:22:35.648Z,5.47
2023-01-05T07:25:02.662Z,5.37
2023-01-05T07:27:29.649Z,4.30
2023-01-05T07:29:56.598Z,4.93
2023-01-05T07:32:23.641Z,4.60
2023-01-05T07:34:55.436Z,4.70
2023-01-05T07:37:24.763Z,4.20
2023-01-05T07:39:52.653Z,4.00
2023-01-05T07:42:19.856Z,4.50
2023-01-05T07:44:48.318Z,5.90
2023-01-05T07:47:15.254Z,4.17
2023-01-05T07:49:42.724Z,4.70
2023-01-05T07:52:09.870Z,5.47
2023-01-05T07:54:37.107Z,5.07
2023-01-05T07:57:04.140Z,4.37
2023-01-05T07:59:31.121Z,3.90
2023-01-05T08:01:58.735Z,5.40
2023-01-05T08:04:25.910Z,4.73
2023-01-05T08:06:52.956Z,5.20
2023-01-05T08:09:38.564Z,5.40
2023-01-05T08:12:05.828Z,4.50
2023-01-05T08:14:32.877Z,4.40
2023-01-05T08:16:59.843Z,4.20
2023-01-05T08:19:26.867Z,5.37
2023-01-05T08:21:53.991Z,5.37
2023-01-05T08:24:20.954Z,4.20
2023-01-05T08:26:50.964Z,5.50
2023-01-05T08:29:18.091Z,5.33
2023-01-05T08:31:45.126Z,5.40
2023-01-05T08:34:12.949Z,6.10
2023-01-05T08:36:43.602Z,5.70
2023-01-05T08:39:13.081Z,5.10
2023-01-05T08:41:41.167Z,5.07
2023-01-05T08:44:12.835Z,5.63
2023-01-05T08:46:40.235Z,5.10
2023-01-05T08:49:09.432Z,6.07
2023-01-05T08:51:36.960Z,6.27
2023-01-05T08:54:03.996Z,6.00
2023-01-05T08:56:38.007Z,5.07
2023-01-05T08:59:06.109Z,4.57
2023-01-05T09:01:33.155Z,5.70
2023-01-05T09:04:00.304Z,4.60
2023-01-05T09:06:27.850Z,5.87
2023-01-05T09:08:55.004Z,4.97
2023-01-05T09:11:24.575Z,4.80
2023-01-05T09:13:53.882Z,5.00
2023-01-05T09:19:13.771Z,4.07
2023-01-05T09:21:40.959Z,6.10
2023-01-05T09:24:12.763Z,4.27
2023-01-05T09:26:43.349Z,4.80
2023-01-05T09:29:11.892Z,4.90
2023-01-05T09:31:41.541Z,14.30
2023-01-05T09:34:08.725Z,6.83
2023-01-05T09:36:38.641Z,5.73
2023-01-05T16:06:09.096Z,6.00
2023-01-05T16:08:42.122Z,6.67
2023-01-05T16:11:13.166Z,4.93
2023-01-05T16:14:31.025Z,7.53
2023-01-05T16:17:22.109Z,7.40
2023-01-05T16:20:07.014Z,7.93
2023-01-05T16:22:47.822Z,8.97
2023-01-05T16:25:32.059Z,7.23
2023-01-05T16:28:03.518Z,8.40
2023-01-05T16:30:42.658Z,6.27
2023-01-05T16:33:12.573Z,4.67
2023-01-05T16:36:06.020Z,6.03
2023-01-05T16:38:33.607Z,5.17
2023-01-05T16:41:09.202Z,5.50
2023-01-05T16:43:46.653Z,6.43
2023-01-05T16:46:18.927Z,38.13
2023-01-05T16:48:53.133Z,7.00
2023-01-05T16:51:23.557Z,13.23
2023-01-05T16:53:59.606Z,13.93
2023-01-05T16:56:32.427Z,7.93
2023-01-05T16:59:24.946Z,9.90
2023-01-05T17:01:52.091Z,9.43
2023-01-05T17:04:19.104Z,9.00
2023-01-05T17:06:52.631Z,8.67
2023-01-05T17:09:26.307Z,10.70
2023-01-05T17:11:53.461Z,8.50
2023-01-05T17:14:21.499Z,8.60
2023-01-05T17:16:48.625Z,9.63
2023-01-05T17:19:19.104Z,19.20
2023-01-05T17:22:06.958Z,24.60
2023-01-05T17:24:36.464Z,41.57
2023-01-05T17:27:03.536Z,38.77
2023-01-05T17:29:32.991Z,33.70
2023-01-05T17:31:59.996Z,23.20
2023-01-05T17:34:26.880Z,15.27
2023-01-05T17:36:57.424Z,13.57
2023-01-05T17:39:24.875Z,22.23
2023-01-05T17:41:52.171Z,23.07
2023-01-05T17:44:19.106Z,24.23
2023-01-05T17:46:47.678Z,29.97
2023-01-05T17:49:46.490Z,36.77
2023-01-05T17:52:14.024Z,34.30
2023-01-05T17:54:41.757Z,32.20
2023-01-05T17:57:14.266Z,28.57
2023-01-05T18:00:09.242Z,29.43
2023-01-05T18:02:37.512Z,29.50
2023-01-05T18:05:05.181Z,29.00
2023-01-05T18:07:33.019Z,22.00
2023-01-05T18:10:00.346Z,13.30
2023-01-05T18:12:28.188Z,14.40
2023-01-05T18:14:55.329Z,13.37
2023-01-05T18:17:22.810Z,12.00
2023-01-05T18:19:49.823Z,10.57
2023-01-05T18:22:17.334Z,12.27
2023-01-05T18:24:45.014Z,10.67
2023-01-05T18:27:38.296Z,10.60
2023-01-05T18:30:07.121Z,11.73
2023-01-05T18:32:34.160Z,11.40
2023-01-05T18:35:04.319Z,11.40
2023-01-05T18:37:34.625Z,11.30
2023-01-05T18:40:01.710Z,10.90
2023-01-05T18:42:28.968Z,10.43
2023-01-05T18:44:55.970Z,12.87
2023-01-05T18:47:22.871Z,10.57
2023-01-05T18:49:49.883Z,10.50
2023-01-05T18:52:18.002Z,9.80
2023-01-05T18:54:45.289Z,9.97
2023-01-05T18:57:12.311Z,11.30
2023-01-05T18:59:39.425Z,10.30
2023-01-05T19:02:06.580Z,10.40
2023-01-05T19:04:33.525Z,10.60
2023-01-05T19:07:00.467Z,10.97
2023-01-05T19:09:27.401Z,10.67
2023-01-05T19:11:54.370Z,10.80
2023-01-05T19:14:21.305Z,10.30
2023-01-05T19:16:49.007Z,10.07
2023-01-05T19:19:16.301Z,10.30
2023-01-05T19:21:47.418Z,10.70
2023-01-05T19:24:18.712Z,10.67
2023-01-05T19:26:48.738Z,11.17
2023-01-05T19:29:17.304Z,10.03
2023-01-05T19:31:45.599Z,10.70
2023-01-05T19:34:14.784Z,10.47
2023-01-05T19:36:41.769Z,10.20
2023-01-05T19:39:21.824Z,9.90
2023-01-05T19:41:51.355Z,9.60
2023-01-05T19:45:09.422Z,10.37
2023-01-05T19:47:40.598Z,10.13
2023-01-05T19:50:10.044Z,11.40
2023-01-05T19:52:38.518Z,11.10
2023-01-05T19:55:06.831Z,10.93
2023-01-05T19:57:33.784Z,12.40
2023-01-05T20:00:00.748Z,10.30
2023-01-05T20:02:27.848Z,11.63
2023-01-05T20:04:55.129Z,12.90
2023-01-05T20:07:22.457Z,11.07
2023-01-05T20:09:50.830Z,10.90
2023-01-05T20:12:17.891Z,23.87
2023-01-05T20:14:45.059Z,10.80
2023-01-05T20:17:13.197Z,10.60
2023-01-05T20:19:40.884Z,10.90
2023-01-05T20:22:14.633Z,11.33
2023-01-05T20:24:42.552Z,12.07
2023-01-05T20:27:13.504Z,12.07
2023-01-05T20:29:40.760Z,14.60
2023-01-05T20:32:22.950Z,13.30
2023-01-05T20:34:57.398Z,13.20
2023-01-05T20:37:24.462Z,13.33
2023-01-05T20:39:54.569Z,11.90
2023-01-05T20:42:44.201Z,13.80
2023-01-05T20:53:38.730Z,16.10
2023-01-05T20:56:17.758Z,15.43
2023-01-05T20:58:47.602Z,14.80
2023-01-05T21:01:15.610Z,16.70
2023-01-05T21:03:50.070Z,16.77
2023-01-05T21:06:21.826Z,15.20
2023-01-05T21:08:53.079Z,15.63
2023-01-05T21:11:25.789Z,16.23
2023-01-05T21:13:59.160Z,16.33
2023-01-05T21:16:30.730Z,18.30
2023-01-05T21:28:21.757Z,19.13
2023-01-05T21:30:49.151Z,19.03
2023-01-05T21:33:16.985Z,19.00
2023-01-05T21:35:44.460Z,17.87
2023-01-05T22:41:50.553Z,17.60
2023-01-05T22:44:17.890Z,18.17
2023-01-05T22:46:45.916Z,19.07
2023-01-05T22:49:15.895Z,19.07
2023-01-05T22:51:42.869Z,19.30
2023-01-05T22:54:09.789Z,19.53
2023-01-05T22:56:37.081Z,19.10
2023-01-05T22:59:05.961Z,18.63
2023-01-05T23:01:37.319Z,18.07
2023-01-05T23:04:08.192Z,21.20
2023-01-05T23:06:35.485Z,20.63
2023-01-05T23:09:05.995Z,19.17
2023-01-05T23:11:39.921Z,22.53
2023-01-05T23:14:09.261Z,20.80
2023-01-05T23:16:36.720Z,19.90
2023-01-05T23:19:06.781Z,20.00
2023-01-05T23:21:35.293Z,19.77
2023-01-05T23:24:05.590Z,20.83
2023-01-05T23:26:32.720Z,20.80
2023-01-05T23:28:59.873Z,20.30
2023-01-05T23:31:27.902Z,21.80
2023-01-05T23:33:55.426Z,21.90
2023-01-05T23:36:23.756Z,21.90
2023-01-05T23:38:50.898Z,22.80
2023-01-05T23:41:18.720Z,22.50
2023-01-05T23:43:46.161Z,23.33
2023-01-05T23:46:25.506Z,20.53
2023-01-05T23:48:53.221Z,22.00
2023-01-05T23:51:20.422Z,22.20
2023-01-05T23:53:51.224Z,24.83
2023-01-05T23:56:22.309Z,23.73
2023-01-05T23:58:55.951Z,24.60
